Terminal Aerodrome Forecast
Issued by NWS

Home | Current Version | Previous Version | Graphics & Text | Print | Product List | Glossary On
Versions: 1 2 3 4 5 6 7 8 9 10 11 12 13 14 15
000
FTUS43 KBIS 200500
TAFDIK
TAF
KDIK 200539Z 2006/2106 28008KT P6SM SCT250
     FM200800 28011KT P6SM SCT120
     FM201700 31018G26KT P6SM SCT250=

USA.gov is the U.S. government's official web portal to all federal, state and local government web resources and services.